• Join FlightAware (Why Join?)
  • Login
  • US Flag 
03:10PM EDT


 

Airport Tracker/Info


-or-


 

Live Flight TrackerFlight Track Log ✈ ASH3770 ✈ 11-Jul-2013 ✈ KIAD - KORF

Flight Track Log - Related Links

Times and Time Zones

All times are in EDT time to prevent confusion due to time zone crossing. See the ASH3770 flight status page for this flight to view local times or setup timezone preferences in your user account.

Time Position Orientation Groundspeed Altitude Reporting Facility
EDT Latitude Longitude Course Direction KTS MPH feet Rate Location/Type
03:59PM 38.9833 -77.5167 180° South 201 231 2,900  Level Potomac TRACON
04:00PM 39.0500 -77.5500 339° North 263 303 5,800 2,820 Climbing Potomac TRACON
04:01PM 39.1167 -77.5000 30° Northeast 285 328 8,700 2,100 Climbing Potomac TRACON
04:02PM 38.7121 -77.0085 125° Southeast  Level FlightAware Approximate
04:02PM 39.1833 -77.4167 44° Northeast 333 383 10,000  Level Potomac TRACON
04:03PM 38.6518 -76.8996 125° Southeast  Level FlightAware Approximate
04:03PM 39.1667 -77.3000 100° East 377 434 11,800  Level Potomac TRACON
04:04PM 38.5914 -76.7909 125° Southeast  Level FlightAware Approximate
04:04PM 39.1333 -77.1667 108° East 380 437 14,000  Level Potomac TRACON
04:05PM 38.5171 -76.7167 180° South  Level FlightAware Approximate
04:05PM 39.0833 -77.0333 116° Southeast 425 489 14,000  Level Potomac TRACON
04:06PM 38.9833 -76.9667 153° Southeast 422 486 14,000  Level Potomac TRACON
04:09PM 38.7464 -76.8347 157° South 420 483 14,000  Level Washington Center
04:10PM 38.6386 -76.7744 156° South 420 483 14,000  Level Washington Center
04:11PM 38.5328 -76.7250 160° South 420 483 14,000  Level Washington Center
04:12PM 38.4183 -76.7100 174° South 409 471 14,000  Level Washington Center
04:13PM 38.2953 -76.6897 173° South 409 471 14,000  Level Washington Center
04:14PM 38.1808 -76.6747 174° South 409 471 14,000  Level Washington Center
04:15PM 38.0683 -76.6678 177° South 409 471 14,000  Level Washington Center
04:16PM 37.9556 -76.6742 183° South 409 471 14,000  Level Washington Center
04:17PM 37.8431 -76.6647 176° South 409 471 14,000  Level Washington Center
04:18PM 37.7625 -76.5689 137° Southeast 418 481 14,100 -600 Climbing Washington Center
04:19PM 37.6861 -76.4606 132° Southeast 415 478 12,900 -1,680 Descending Washington Center
04:20PM 37.6119 -76.3572 132° Southeast 389 448 10,700 -1,500 Descending Washington Center
04:21PM 37.5517 -76.2861 137° Southeast 343 395 10,100 -780 Descending Washington Center
04:22PM 37.4897 -76.2044 134° Southeast 300 345 9,300 -1,320 Descending Washington Center
04:23PM 37.4294 -76.1333 137° Southeast 295 339 7,400 -1,800 Descending Washington Center
04:24PM 37.3525 -76.0883 155° Southeast 283 326 5,600 -1,620 Descending Washington Center
04:25PM 37.2817 -76.0514 157° South 278 320 4,100 -840 Descending Washington Center
04:26PM 37.2150 -76.0169 158° South 273 314 4,000 -60 Descending Washington Center
04:27PM 37.1442 -76.0008 170° South 268 308 4,000 -300 Level Washington Center
04:28PM 37.0731 -76.0344 201° Southwest 230 265 3,400 -480 Descending Washington Center
04:29PM 37.0272 -76.0731 214° Southwest 187 215 3,000 -420 Descending Washington Center